sensor_id;sensor_type;location;lat;lon;timestamp;pressure;altitude;pressure_sealevel;temperature;humidity
68107;BME280;54892;47.488;19.026;2022-07-12T00:01:54;100389.53;;;16.44;49.65
68107;BME280;54892;47.488;19.026;2022-07-12T00:04:57;100383.78;;;16.37;49.97
68107;BME280;54892;47.488;19.026;2022-07-12T00:08:01;100387.72;;;16.40;50.07
68107;BME280;54892;47.488;19.026;2022-07-12T00:11:04;100378.22;;;16.34;50.08
68107;BME280;54892;47.488;19.026;2022-07-12T00:14:07;100377.19;;;16.29;50.14
68107;BME280;54892;47.488;19.026;2022-07-12T00:17:13;100375.91;;;16.27;50.09
68107;BME280;54892;47.488;19.026;2022-07-12T00:20:16;100376.34;;;16.34;50.18
68107;BME280;54892;47.488;19.026;2022-07-12T00:23:19;100381.53;;;16.44;50.19
68107;BME280;54892;47.488;19.026;2022-07-12T00:26:23;100379.13;;;16.48;50.04
68107;BME280;54892;47.488;19.026;2022-07-12T00:29:26;100374.00;;;16.52;49.92
68107;BME280;54892;47.488;19.026;2022-07-12T00:32:31;100366.53;;;16.54;49.81
68107;BME280;54892;47.488;19.026;2022-07-12T00:38:55;100380.50;;;16.65;49.46
68107;BME280;54892;47.488;19.026;2022-07-12T00:41:59;100373.59;;;16.64;49.21
68107;BME280;54892;47.488;19.026;2022-07-12T00:45:02;100377.41;;;16.57;49.33
68107;BME280;54892;47.488;19.026;2022-07-12T00:48:08;100374.38;;;16.64;49.27
68107;BME280;54892;47.488;19.026;2022-07-12T00:51:12;100380.88;;;16.58;49.56
68107;BME280;54892;47.488;19.026;2022-07-12T00:54:16;100385.44;;;16.52;49.87
68107;BME280;54892;47.488;19.026;2022-07-12T00:57:19;100388.47;;;16.46;49.88
68107;BME280;54892;47.488;19.026;2022-07-12T01:00:26;100394.22;;;16.34;50.23
68107;BME280;54892;47.488;19.026;2022-07-12T01:03:31;100404.38;;;16.51;49.70
68107;BME280;54892;47.488;19.026;2022-07-12T01:06:35;100398.28;;;16.26;50.07
68107;BME280;54892;47.488;19.026;2022-07-12T01:09:39;100390.63;;;16.19;50.32
68107;BME280;54892;47.488;19.026;2022-07-12T01:12:43;100396.44;;;16.21;50.26
68107;BME280;54892;47.488;19.026;2022-07-12T01:15:47;100391.88;;;16.03;50.93
68107;BME280;54892;47.488;19.026;2022-07-12T01:18:51;100392.31;;;16.10;50.93
68107;BME280;54892;47.488;19.026;2022-07-12T01:21:56;100384.09;;;16.06;51.30
68107;BME280;54892;47.488;19.026;2022-07-12T01:25:02;100383.97;;;15.92;51.47
68107;BME280;54892;47.488;19.026;2022-07-12T01:28:06;100379.50;;;15.82;51.78
68107;BME280;54892;47.488;19.026;2022-07-12T01:31:09;100377.66;;;15.83;51.82
68107;BME280;54892;47.488;19.026;2022-07-12T01:34:13;100379.37;;;15.68;52.27
68107;BME280;54892;47.488;19.026;2022-07-12T01:37:18;100372.28;;;15.59;52.65
68107;BME280;54892;47.488;19.026;2022-07-12T01:40:23;100374.69;;;15.55;53.09
68107;BME280;54892;47.488;19.026;2022-07-12T01:43:27;100374.78;;;15.45;53.34
68107;BME280;54892;47.488;19.026;2022-07-12T01:46:31;100374.69;;;15.55;53.45
68107;BME280;54892;47.488;19.026;2022-07-12T01:49:36;100365.06;;;15.59;53.54
68107;BME280;54892;47.488;19.026;2022-07-12T01:52:40;100364.66;;;15.76;53.14
68107;BME280;54892;47.488;19.026;2022-07-12T01:55:44;100358.16;;;15.93;52.97
68107;BME280;54892;47.488;19.026;2022-07-12T01:58:48;100359.84;;;16.08;52.56
68107;BME280;54892;47.488;19.026;2022-07-12T02:01:51;100365.09;;;16.18;52.19
68107;BME280;54892;47.488;19.026;2022-07-12T02:04:55;100363.41;;;16.22;52.24
68107;BME280;54892;47.488;19.026;2022-07-12T02:07:58;100360.66;;;16.33;51.63
68107;BME280;54892;47.488;19.026;2022-07-12T02:11:03;100350.66;;;16.43;51.16
68107;BME280;54892;47.488;19.026;2022-07-12T02:14:06;100359.25;;;16.59;50.49
68107;BME280;54892;47.488;19.026;2022-07-12T02:17:09;100359.25;;;16.59;50.52
68107;BME280;54892;47.488;19.026;2022-07-12T02:20:12;100357.59;;;16.64;50.19
68107;BME280;54892;47.488;19.026;2022-07-12T02:23:15;100348.53;;;16.65;49.97
68107;BME280;54892;47.488;19.026;2022-07-12T02:26:20;100359.09;;;16.70;50.01
68107;BME280;54892;47.488;19.026;2022-07-12T02:29:23;100355.87;;;16.73;49.80
68107;BME280;54892;47.488;19.026;2022-07-12T02:32:27;100352.56;;;16.81;49.66
68107;BME280;54892;47.488;19.026;2022-07-12T02:35:30;100357.41;;;16.79;49.58
68107;BME280;54892;47.488;19.026;2022-07-12T02:38:33;100363.00;;;16.78;49.53
68107;BME280;54892;47.488;19.026;2022-07-12T02:41:38;100355.50;;;16.80;49.52
68107;BME280;54892;47.488;19.026;2022-07-12T02:44:41;100366.91;;;16.85;49.34
68107;BME280;54892;47.488;19.026;2022-07-12T02:47:44;100365.31;;;16.84;49.41
68107;BME280;54892;47.488;19.026;2022-07-12T02:50:48;100363.66;;;16.88;49.39
68107;BME280;54892;47.488;19.026;2022-07-12T02:53:52;100375.47;;;16.82;49.52
68107;BME280;54892;47.488;19.026;2022-07-12T02:56:56;100365.91;;;16.81;49.53
68107;BME280;54892;47.488;19.026;2022-07-12T02:59:59;100373.91;;;16.81;49.49
68107;BME280;54892;47.488;19.026;2022-07-12T03:03:03;100372.47;;;16.89;49.53
68107;BME280;54892;47.488;19.026;2022-07-12T03:06:06;100381.22;;;16.95;49.45
68107;BME280;54892;47.488;19.026;2022-07-12T03:09:09;100378.56;;;16.89;49.40
68107;BME280;54892;47.488;19.026;2022-07-12T03:12:15;100379.09;;;16.92;49.54
68107;BME280;54892;47.488;19.026;2022-07-12T03:15:18;100383.91;;;16.89;49.51
68107;BME280;54892;47.488;19.026;2022-07-12T03:18:22;100377.28;;;16.87;49.44
68107;BME280;54892;47.488;19.026;2022-07-12T03:21:25;100384.47;;;16.86;49.59
68107;BME280;54892;47.488;19.026;2022-07-12T03:24:28;100384.56;;;16.81;49.71
68107;BME280;54892;47.488;19.026;2022-07-12T03:27:33;100384.62;;;16.76;49.87
68107;BME280;54892;47.488;19.026;2022-07-12T03:30:38;100386.31;;;16.67;50.06
68107;BME280;54892;47.488;19.026;2022-07-12T03:33:41;100394.84;;;16.69;50.17
68107;BME280;54892;47.488;19.026;2022-07-12T03:36:45;100396.66;;;16.73;50.08
68107;BME280;54892;47.488;19.026;2022-07-12T03:39:48;100396.41;;;16.70;50.21
68107;BME280;54892;47.488;19.026;2022-07-12T03:42:55;100403.63;;;16.69;50.26
68107;BME280;54892;47.488;19.026;2022-07-12T03:46:00;100397.59;;;16.64;50.44
68107;BME280;54892;47.488;19.026;2022-07-12T03:49:03;100392.81;;;16.61;50.43
68107;BME280;54892;47.488;19.026;2022-07-12T03:52:07;100393.19;;;16.73;50.38
68107;BME280;54892;47.488;19.026;2022-07-12T03:55:11;100390.16;;;16.61;50.60
68107;BME280;54892;47.488;19.026;2022-07-12T03:58:15;100392.81;;;16.61;50.64
68107;BME280;54892;47.488;19.026;2022-07-12T04:01:18;100394.84;;;16.69;50.63
68107;BME280;54892;47.488;19.026;2022-07-12T04:04:21;100392.16;;;16.69;50.72
68107;BME280;54892;47.488;19.026;2022-07-12T04:07:24;100393.41;;;16.77;50.72
68107;BME280;54892;47.488;19.026;2022-07-12T04:10:27;100388.06;;;17.20;49.62
68107;BME280;54892;47.488;19.026;2022-07-12T04:13:32;100394.94;;;17.87;48.17
68107;BME280;54892;47.488;19.026;2022-07-12T04:16:35;100396.78;;;18.06;47.35
68107;BME280;54892;47.488;19.026;2022-07-12T04:19:39;100393.59;;;17.90;47.87
68107;BME280;54892;47.488;19.026;2022-07-12T04:22:42;100394.56;;;17.80;48.17
68107;BME280;54892;47.488;19.026;2022-07-12T04:25:45;100402.84;;;17.64;48.57
68107;BME280;54892;47.488;19.026;2022-07-12T04:28:49;100403.94;;;17.77;48.29
68107;BME280;54892;47.488;19.026;2022-07-12T04:31:55;100404.03;;;17.72;48.46
68107;BME280;54892;47.488;19.026;2022-07-12T04:34:58;100401.94;;;17.69;48.61
68107;BME280;54892;47.488;19.026;2022-07-12T04:38:01;100401.38;;;17.72;48.59
68107;BME280;54892;47.488;19.026;2022-07-12T04:41:04;100399.97;;;17.75;48.59
68107;BME280;54892;47.488;19.026;2022-07-12T04:44:09;100394.56;;;17.80;48.56
68107;BME280;54892;47.488;19.026;2022-07-12T04:47:13;100398.72;;;17.86;48.41
68107;BME280;54892;47.488;19.026;2022-07-12T04:50:16;100402.06;;;17.92;48.34
68107;BME280;54892;47.488;19.026;2022-07-12T04:53:20;100394.06;;;17.92;48.36
68107;BME280;54892;47.488;19.026;2022-07-12T04:56:23;100399.91;;;17.94;48.18
68107;BME280;54892;47.488;19.026;2022-07-12T04:59:27;100396.37;;;17.99;48.28
68107;BME280;54892;47.488;19.026;2022-07-12T05:02:31;100397.69;;;18.01;48.09
68107;BME280;54892;47.488;19.026;2022-07-12T05:05:35;100398.88;;;18.09;47.61
68107;BME280;54892;47.488;19.026;2022-07-12T05:08:38;100400.38;;;18.29;47.76
68107;BME280;54892;47.488;19.026;2022-07-12T05:11:42;100405.97;;;18.69;47.04
68107;BME280;54892;47.488;19.026;2022-07-12T05:14:46;100409.13;;;18.99;45.45
68107;BME280;54892;47.488;19.026;2022-07-12T05:17:50;100417.75;;;18.96;45.65
68107;BME280;54892;47.488;19.026;2022-07-12T05:20:53;100416.06;;;19.23;45.34
68107;BME280;54892;47.488;19.026;2022-07-12T05:23:57;100414.84;;;19.07;45.50
68107;BME280;54892;47.488;19.026;2022-07-12T05:27:00;100417.94;;;19.00;46.03
68107;BME280;54892;47.488;19.026;2022-07-12T05:30:06;100414.78;;;18.84;46.14
68107;BME280;54892;47.488;19.026;2022-07-12T05:33:09;100417.63;;;18.87;46.31
68107;BME280;54892;47.488;19.026;2022-07-12T05:36:13;100416.47;;;18.80;46.35
68107;BME280;54892;47.488;19.026;2022-07-12T05:39:16;100417.56;;;18.79;46.22
68107;BME280;54892;47.488;19.026;2022-07-12T05:42:19;100417.81;;;18.91;46.37
68107;BME280;54892;47.488;19.026;2022-07-12T05:45:24;100422.09;;;18.92;46.16
68107;BME280;54892;47.488;19.026;2022-07-12T05:48:27;100425.06;;;18.91;46.07
68107;BME280;54892;47.488;19.026;2022-07-12T05:51:31;100426.28;;;18.98;45.28
68107;BME280;54892;47.488;19.026;2022-07-12T05:54:48;100429.22;;;18.97;45.85
68107;BME280;54892;47.488;19.026;2022-07-12T05:57:51;100426.53;;;19.11;45.93
68107;BME280;54892;47.488;19.026;2022-07-12T06:00:56;100430.22;;;19.01;45.64
68107;BME280;54892;47.488;19.026;2022-07-12T06:03:59;100430.88;;;19.07;45.78
68107;BME280;54892;47.488;19.026;2022-07-12T06:07:03;100428.88;;;19.12;45.78
68107;BME280;54892;47.488;19.026;2022-07-12T06:10:08;100421.31;;;19.28;45.18
68107;BME280;54892;47.488;19.026;2022-07-12T06:13:11;100420.31;;;19.47;44.29
68107;BME280;54892;47.488;19.026;2022-07-12T06:16:16;100417.78;;;19.42;44.20
68107;BME280;54892;47.488;19.026;2022-07-12T06:19:20;100426.91;;;19.41;44.53
68107;BME280;54892;47.488;19.026;2022-07-12T06:22:25;100411.69;;;19.50;44.22
68107;BME280;54892;47.488;19.026;2022-07-12T06:25:28;100412.72;;;19.63;43.99
68107;BME280;54892;47.488;19.026;2022-07-12T06:28:42;100412.09;;;19.89;43.91
68107;BME280;54892;47.488;19.026;2022-07-12T06:31:47;100422.53;;;19.90;43.09
68107;BME280;54892;47.488;19.026;2022-07-12T06:34:51;100421.47;;;20.09;42.51
68107;BME280;54892;47.488;19.026;2022-07-12T06:37:54;100443.94;;;20.22;42.21
68107;BME280;54892;47.488;19.026;2022-07-12T06:40:58;100418.25;;;20.30;41.69
68107;BME280;54892;47.488;19.026;2022-07-12T06:44:01;100427.88;;;20.31;41.19
68107;BME280;54892;47.488;19.026;2022-07-12T06:47:06;100419.53;;;20.23;41.61
68107;BME280;54892;47.488;19.026;2022-07-12T06:50:09;100429.81;;;20.39;41.33
68107;BME280;54892;47.488;19.026;2022-07-12T06:53:13;100423.31;;;20.31;40.83
68107;BME280;54892;47.488;19.026;2022-07-12T06:56:16;100425.19;;;20.31;41.11
68107;BME280;54892;47.488;19.026;2022-07-12T06:59:19;100435.00;;;20.35;40.76
68107;BME280;54892;47.488;19.026;2022-07-12T07:02:23;100431.69;;;20.38;40.41
68107;BME280;54892;47.488;19.026;2022-07-12T07:05:27;100419.31;;;20.60;40.38
68107;BME280;54892;47.488;19.026;2022-07-12T07:08:30;100417.00;;;21.03;39.82
68107;BME280;54892;47.488;19.026;2022-07-12T07:11:33;100418.25;;;21.14;39.64
68107;BME280;54892;47.488;19.026;2022-07-12T07:14:38;100423.00;;;21.26;39.01
68107;BME280;54892;47.488;19.026;2022-07-12T07:17:42;100420.31;;;20.99;39.31
68107;BME280;54892;47.488;19.026;2022-07-12T07:20:46;100420.94;;;20.88;38.98
68107;BME280;54892;47.488;19.026;2022-07-12T07:23:49;100420.75;;;20.75;39.74
68107;BME280;54892;47.488;19.026;2022-07-12T07:26:52;100420.25;;;20.73;39.89
68107;BME280;54892;47.488;19.026;2022-07-12T07:29:58;100427.66;;;20.67;40.05
68107;BME280;54892;47.488;19.026;2022-07-12T07:33:20;100427.34;;;20.60;40.27
68107;BME280;54892;47.488;19.026;2022-07-12T07:36:23;100426.28;;;20.88;40.10
68107;BME280;54892;47.488;19.026;2022-07-12T07:39:26;100425.69;;;21.26;39.18
68107;BME280;54892;47.488;19.026;2022-07-12T07:42:29;100423.47;;;21.63;37.92
68107;BME280;54892;47.488;19.026;2022-07-12T07:45:32;100421.59;;;22.02;37.18
68107;BME280;54892;47.488;19.026;2022-07-12T07:48:37;100414.97;;;22.39;37.12
68107;BME280;54892;47.488;19.026;2022-07-12T07:51:40;100415.78;;;22.60;36.31
68107;BME280;54892;47.488;19.026;2022-07-12T07:54:44;100421.09;;;22.48;36.84
68107;BME280;54892;47.488;19.026;2022-07-12T07:57:48;100424.81;;;22.26;37.55
68107;BME280;54892;47.488;19.026;2022-07-12T08:00:51;100417.34;;;22.01;37.64
68107;BME280;54892;47.488;19.026;2022-07-12T08:03:56;100419.56;;;21.99;37.40
68107;BME280;54892;47.488;19.026;2022-07-12T08:06:59;100429.56;;;21.81;37.65
68107;BME280;54892;47.488;19.026;2022-07-12T08:10:03;100421.84;;;21.80;37.88
68107;BME280;54892;47.488;19.026;2022-07-12T08:13:06;100430.53;;;21.77;37.62
68107;BME280;54892;47.488;19.026;2022-07-12T08:16:10;100426.28;;;21.75;37.58
68107;BME280;54892;47.488;19.026;2022-07-12T08:19:14;100424.22;;;21.72;37.86
68107;BME280;54892;47.488;19.026;2022-07-12T08:22:18;100426.81;;;22.08;37.64
68107;BME280;54892;47.488;19.026;2022-07-12T08:25:22;100417.75;;;22.51;36.22
68107;BME280;54892;47.488;19.026;2022-07-12T08:28:25;100420.34;;;23.11;35.59
68107;BME280;54892;47.488;19.026;2022-07-12T08:31:28;100429.06;;;23.50;34.19
68107;BME280;54892;47.488;19.026;2022-07-12T08:34:32;100419.09;;;23.76;34.04
68107;BME280;54892;47.488;19.026;2022-07-12T08:37:35;100421.69;;;23.84;33.18
68107;BME280;54892;47.488;19.026;2022-07-12T08:40:38;100418.56;;;23.82;33.49
68107;BME280;54892;47.488;19.026;2022-07-12T08:43:42;100406.44;;;23.88;33.47
68107;BME280;54892;47.488;19.026;2022-07-12T08:46:45;100407.47;;;23.96;33.24
68107;BME280;54892;47.488;19.026;2022-07-12T08:50:13;100405.66;;;23.88;33.17
68107;BME280;54892;47.488;19.026;2022-07-12T08:53:17;100410.91;;;23.72;32.78
68107;BME280;54892;47.488;19.026;2022-07-12T08:56:30;100411.34;;;23.62;33.73
68107;BME280;54892;47.488;19.026;2022-07-12T08:59:34;100408.22;;;23.72;33.83
68107;BME280;54892;47.488;19.026;2022-07-12T09:02:43;100410.22;;;23.63;34.17
68107;BME280;54892;47.488;19.026;2022-07-12T09:05:50;100406.50;;;23.55;34.54
68107;BME280;54892;47.488;19.026;2022-07-12T09:08:54;100403.63;;;23.39;34.86
68107;BME280;54892;47.488;19.026;2022-07-12T09:11:58;100418.84;;;23.22;34.69
68107;BME280;54892;47.488;19.026;2022-07-12T09:15:11;100413.19;;;23.15;34.50
68107;BME280;54892;47.488;19.026;2022-07-12T09:18:15;100407.59;;;23.20;33.61
68107;BME280;54892;47.488;19.026;2022-07-12T09:21:25;100404.53;;;23.31;34.06
68107;BME280;54892;47.488;19.026;2022-07-12T09:24:29;100404.62;;;23.34;33.16
68107;BME280;54892;47.488;19.026;2022-07-12T09:27:32;100407.25;;;23.43;33.28
68107;BME280;54892;47.488;19.026;2022-07-12T09:30:37;100396.34;;;23.39;33.48
68107;BME280;54892;47.488;19.026;2022-07-12T09:34:02;100400.34;;;23.21;33.53
68107;BME280;54892;47.488;19.026;2022-07-12T09:37:25;100408.12;;;23.14;33.14
68107;BME280;54892;47.488;19.026;2022-07-12T09:40:28;100400.63;;;23.19;33.50
68107;BME280;54892;47.488;19.026;2022-07-12T09:43:32;100391.62;;;23.36;33.46
68107;BME280;54892;47.488;19.026;2022-07-12T09:46:36;100398.41;;;23.42;33.49
68107;BME280;54892;47.488;19.026;2022-07-12T09:49:41;100398.72;;;23.41;32.11
68107;BME280;54892;47.488;19.026;2022-07-12T09:52:48;100396.94;;;23.57;32.10
68107;BME280;54892;47.488;19.026;2022-07-12T09:55:51;100399.91;;;23.65;31.01
68107;BME280;54892;47.488;19.026;2022-07-12T09:59:01;100392.00;;;23.47;30.99
68107;BME280;54892;47.488;19.026;2022-07-12T10:02:06;100395.94;;;23.50;31.38
68107;BME280;54892;47.488;19.026;2022-07-12T10:05:10;100383.94;;;23.60;31.14
68107;BME280;54892;47.488;19.026;2022-07-12T10:08:15;100394.50;;;23.65;31.22
68107;BME280;54892;47.488;19.026;2022-07-12T10:11:18;100385.06;;;23.71;31.07
68107;BME280;54892;47.488;19.026;2022-07-12T10:14:35;100379.37;;;23.85;30.97
68107;BME280;54892;47.488;19.026;2022-07-12T10:17:42;100374.53;;;23.66;30.77
68107;BME280;54892;47.488;19.026;2022-07-12T10:20:47;100380.34;;;23.55;30.67
68107;BME280;54892;47.488;19.026;2022-07-12T10:23:52;100375.50;;;23.49;31.23
68107;BME280;54892;47.488;19.026;2022-07-12T10:26:55;100383.94;;;23.60;31.41
68107;BME280;54892;47.488;19.026;2022-07-12T10:30:22;100374.31;;;23.83;31.41
68107;BME280;54892;47.488;19.026;2022-07-12T10:33:26;100377.91;;;23.87;31.69
68107;BME280;54892;47.488;19.026;2022-07-12T10:36:30;100360.41;;;24.06;31.43
68107;BME280;54892;47.488;19.026;2022-07-12T10:39:34;100364.47;;;24.25;31.19
68107;BME280;54892;47.488;19.026;2022-07-12T10:42:38;100368.41;;;24.15;30.91
68107;BME280;54892;47.488;19.026;2022-07-12T10:45:42;100357.34;;;23.83;31.87
68107;BME280;54892;47.488;19.026;2022-07-12T10:48:46;100364.44;;;24.00;32.05
68107;BME280;54892;47.488;19.026;2022-07-12T10:52:13;100357.25;;;24.16;32.10
68107;BME280;54892;47.488;19.026;2022-07-12T10:55:19;100367.81;;;24.34;31.89
68107;BME280;54892;47.488;19.026;2022-07-12T10:58:29;100391.66;;;24.20;31.97
68107;BME280;54892;47.488;19.026;2022-07-12T11:01:33;100399.56;;;23.66;34.04
68107;BME280;54892;47.488;19.026;2022-07-12T11:04:46;100415.59;;;23.29;38.57
68107;BME280;54892;47.488;19.026;2022-07-12T11:07:49;100414.22;;;22.59;42.56
68107;BME280;54892;47.488;19.026;2022-07-12T11:10:57;100404.03;;;22.35;41.27
68107;BME280;54892;47.488;19.026;2022-07-12T11:14:01;100405.97;;;22.34;41.17
68107;BME280;54892;47.488;19.026;2022-07-12T11:17:04;100409.94;;;22.28;40.78
68107;BME280;54892;47.488;19.026;2022-07-12T11:20:10;100397.59;;;22.27;41.66
68107;BME280;54892;47.488;19.026;2022-07-12T11:23:13;100391.69;;;22.43;40.91
68107;BME280;54892;47.488;19.026;2022-07-12T11:26:17;100389.94;;;22.47;40.73
68107;BME280;54892;47.488;19.026;2022-07-12T11:29:21;100392.69;;;22.59;39.95
68107;BME280;54892;47.488;19.026;2022-07-12T11:32:39;100381.69;;;22.73;39.86
68107;BME280;54892;47.488;19.026;2022-07-12T11:35:44;100376.81;;;22.88;39.72
68107;BME280;54892;47.488;19.026;2022-07-12T11:38:47;100363.47;;;23.12;38.57
68107;BME280;54892;47.488;19.026;2022-07-12T11:41:55;100366.81;;;23.31;37.90
68107;BME280;54892;47.488;19.026;2022-07-12T11:44:59;100360.78;;;23.46;38.06
68107;BME280;54892;47.488;19.026;2022-07-12T11:48:03;100353.72;;;23.41;35.20
68107;BME280;54892;47.488;19.026;2022-07-12T11:51:08;100349.75;;;23.39;34.64
68107;BME280;54892;47.488;19.026;2022-07-12T11:54:11;100338.09;;;23.35;35.05
68107;BME280;54892;47.488;19.026;2022-07-12T11:57:20;100328.66;;;23.41;34.10
68107;BME280;54892;47.488;19.026;2022-07-12T12:00:24;100331.06;;;23.42;32.83
68107;BME280;54892;47.488;19.026;2022-07-12T12:03:28;100326.53;;;23.47;32.14
68107;BME280;54892;47.488;19.026;2022-07-12T12:06:31;100333.31;;;23.53;31.78
68107;BME280;54892;47.488;19.026;2022-07-12T12:09:59;100341.59;;;23.60;31.63
68107;BME280;54892;47.488;19.026;2022-07-12T12:13:12;100336.81;;;23.78;31.19
68107;BME280;54892;47.488;19.026;2022-07-12T12:16:15;100329.97;;;24.06;31.06
68107;BME280;54892;47.488;19.026;2022-07-12T12:19:18;100330.25;;;24.41;30.39
68107;BME280;54892;47.488;19.026;2022-07-12T12:22:28;100333.19;;;24.36;30.08
68107;BME280;54892;47.488;19.026;2022-07-12T12:25:33;100317.34;;;24.35;30.41
68107;BME280;54892;47.488;19.026;2022-07-12T12:28:45;100318.87;;;24.48;29.97
68107;BME280;54892;47.488;19.026;2022-07-12T12:31:56;100313.53;;;24.64;28.29
68107;BME280;54892;47.488;19.026;2022-07-12T12:35:05;100322.31;;;24.61;28.88
68107;BME280;54892;47.488;19.026;2022-07-12T12:38:11;100311.97;;;24.63;28.94
68107;BME280;54892;47.488;19.026;2022-07-12T12:41:14;100315.88;;;24.78;28.14
68107;BME280;54892;47.488;19.026;2022-07-12T12:44:19;100316.06;;;24.85;28.31
68107;BME280;54892;47.488;19.026;2022-07-12T12:47:22;100321.81;;;24.84;28.51
68107;BME280;54892;47.488;19.026;2022-07-12T12:50:40;100323.56;;;24.63;27.30
68107;BME280;54892;47.488;19.026;2022-07-12T12:53:54;100324.09;;;24.28;28.10
68107;BME280;54892;47.488;19.026;2022-07-12T12:56:58;100317.28;;;24.06;28.72
68107;BME280;54892;47.488;19.026;2022-07-12T13:00:03;100313.34;;;24.16;28.22
68107;BME280;54892;47.488;19.026;2022-07-12T13:03:06;100315.34;;;24.07;28.15
68107;BME280;54892;47.488;19.026;2022-07-12T13:06:10;100320.53;;;23.99;28.04
68107;BME280;54892;47.488;19.026;2022-07-12T13:09:13;100308.41;;;24.06;27.97
68107;BME280;54892;47.488;19.026;2022-07-12T13:12:16;100303.12;;;24.09;28.02
68107;BME280;54892;47.488;19.026;2022-07-12T13:15:21;100294.44;;;23.91;27.52
68107;BME280;54892;47.488;19.026;2022-07-12T13:18:24;100294.81;;;24.02;26.82
68107;BME280;54892;47.488;19.026;2022-07-12T13:21:27;100299.62;;;24.21;25.41
68107;BME280;54892;47.488;19.026;2022-07-12T13:24:31;100290.69;;;24.33;26.18
68107;BME280;54892;47.488;19.026;2022-07-12T13:27:34;100278.94;;;24.54;25.97
68107;BME280;54892;47.488;19.026;2022-07-12T13:30:39;100289.47;;;24.71;26.17
68107;BME280;54892;47.488;19.026;2022-07-12T13:33:42;100289.94;;;24.73;26.07
68107;BME280;54892;47.488;19.026;2022-07-12T13:36:46;100294.19;;;24.74;25.42
68107;BME280;54892;47.488;19.026;2022-07-12T13:39:49;100286.44;;;24.73;25.92
68107;BME280;54892;47.488;19.026;2022-07-12T13:43:10;100285.75;;;24.76;25.87
68107;BME280;54892;47.488;19.026;2022-07-12T13:46:15;100292.22;;;24.87;25.66
68107;BME280;54892;47.488;19.026;2022-07-12T13:49:18;100293.97;;;24.96;25.61
68107;BME280;54892;47.488;19.026;2022-07-12T13:52:21;100293.47;;;24.90;24.89
68107;BME280;54892;47.488;19.026;2022-07-12T13:55:24;100290.19;;;24.84;25.31
68107;BME280;54892;47.488;19.026;2022-07-12T13:58:28;100288.75;;;24.87;25.31
68107;BME280;54892;47.488;19.026;2022-07-12T14:01:32;100291.00;;;25.01;24.80
68107;BME280;54892;47.488;19.026;2022-07-12T14:04:35;100286.56;;;24.92;24.67
68107;BME280;54892;47.488;19.026;2022-07-12T14:07:39;100284.31;;;24.95;24.70
68107;BME280;54892;47.488;19.026;2022-07-12T14:10:43;100284.84;;;25.00;25.06
68107;BME280;54892;47.488;19.026;2022-07-12T14:13:46;100302.09;;;25.12;24.58
68107;BME280;54892;47.488;19.026;2022-07-12T14:16:51;100287.25;;;24.89;24.72
68107;BME280;54892;47.488;19.026;2022-07-12T14:19:54;100280.25;;;24.72;24.52
68107;BME280;54892;47.488;19.026;2022-07-12T14:22:58;100267.22;;;24.74;24.95
68107;BME280;54892;47.488;19.026;2022-07-12T14:26:01;100282.91;;;24.85;25.07
68107;BME280;54892;47.488;19.026;2022-07-12T14:29:05;100279.56;;;24.63;24.91
68107;BME280;54892;47.488;19.026;2022-07-12T14:32:10;100266.97;;;24.67;25.03
68107;BME280;54892;47.488;19.026;2022-07-12T14:35:13;100265.75;;;24.65;25.71
68107;BME280;54892;47.488;19.026;2022-07-12T14:38:16;100270.69;;;24.75;25.72
68107;BME280;54892;47.488;19.026;2022-07-12T14:41:19;100268.06;;;24.78;25.16
68107;BME280;54892;47.488;19.026;2022-07-12T14:44:22;100264.84;;;24.73;25.70
68107;BME280;54892;47.488;19.026;2022-07-12T14:47:28;100281.37;;;24.71;25.35
68107;BME280;54892;47.488;19.026;2022-07-12T14:50:31;100270.75;;;24.50;25.61
68107;BME280;54892;47.488;19.026;2022-07-12T14:53:34;100271.34;;;24.43;26.36
68107;BME280;54892;47.488;19.026;2022-07-12T14:56:38;100281.06;;;24.60;26.46
68107;BME280;54892;47.488;19.026;2022-07-12T14:59:41;100269.28;;;24.53;26.68
68107;BME280;54892;47.488;19.026;2022-07-12T15:02:46;100277.31;;;24.65;26.63
68107;BME280;54892;47.488;19.026;2022-07-12T15:05:50;100280.44;;;24.51;26.49
68107;BME280;54892;47.488;19.026;2022-07-12T15:08:54;100273.97;;;24.27;26.57
68107;BME280;54892;47.488;19.026;2022-07-12T15:11:57;100281.37;;;24.30;26.95
68107;BME280;54892;47.488;19.026;2022-07-12T15:15:00;100279.62;;;24.10;27.21
68107;BME280;54892;47.488;19.026;2022-07-12T15:18:05;100273.19;;;24.27;27.33
68107;BME280;54892;47.488;19.026;2022-07-12T15:21:08;100278.06;;;24.09;27.22
68107;BME280;54892;47.488;19.026;2022-07-12T15:24:12;100283.00;;;24.07;27.23
68107;BME280;54892;47.488;19.026;2022-07-12T15:27:15;100274.09;;;24.18;27.08
68107;BME280;54892;47.488;19.026;2022-07-12T15:30:18;100287.34;;;24.24;26.58
68107;BME280;54892;47.488;19.026;2022-07-12T15:33:23;100274.41;;;24.29;27.10
68107;BME280;54892;47.488;19.026;2022-07-12T15:36:26;100279.31;;;24.11;27.16
68107;BME280;54892;47.488;19.026;2022-07-12T15:39:29;100283.16;;;23.98;27.14
68107;BME280;54892;47.488;19.026;2022-07-12T15:42:33;100283.25;;;23.89;27.27
68107;BME280;54892;47.488;19.026;2022-07-12T15:45:36;100287.38;;;23.86;27.55
68107;BME280;54892;47.488;19.026;2022-07-12T15:48:40;100276.16;;;23.84;28.28
68107;BME280;54892;47.488;19.026;2022-07-12T15:51:44;100281.53;;;23.84;29.12
68107;BME280;54892;47.488;19.026;2022-07-12T15:55:05;100284.69;;;23.86;29.94
68107;BME280;54892;47.488;19.026;2022-07-12T15:58:10;100279.97;;;23.83;30.15